Time;durP1;ratioP1;P1;durP2;ratioP2;P2;SDS_P1;SDS_P2;PMS_P1;PMS_P2;Temp;Humidity;BMP_temperature;BMP_pressure;BME280_temperature;BME280_humidity;BME280_pressure;Samples;Min_cycle;Max_cycle;Signal;HPM_P1;HPM_P2
2024/01/20 00:01:18;;;;;;;20.13;13.98;;;;;;;;;;5059878;28;20081;-74
2024/01/20 00:03:45;;;;;;;22.45;15.40;;;;;;;;;;5041867;28;22723;-73
2024/01/20 00:06:11;;;;;;;21.17;14.50;;;;;;;;;;5057852;28;20044;-74
2024/01/20 00:08:37;;;;;;;22.20;15.70;;;;;;;;;;5041849;28;20586;-74
2024/01/20 00:11:06;;;;;;;24.77;15.77;;;;;;;;;;5040246;28;20128;-74
2024/01/20 00:13:35;;;;;;;25.92;17.02;;;;;;;;;;5056448;28;20140;-73
2024/01/20 00:16:02;;;;;;;20.40;16.38;;;;;;;;;;5058364;28;20124;-73
2024/01/20 00:18:34;;;;;;;26.23;16.80;;;;;;;;;;5024469;28;20075;-73
2024/01/20 00:21:00;;;;;;;23.75;17.00;;;;;;;;;;5055642;28;20705;-74
2024/01/20 00:23:29;;;;;;;26.63;17.08;;;;;;;;;;5042446;28;20103;-74
2024/01/20 00:25:55;;;;;;;24.70;17.52;;;;;;;;;;5058387;28;20037;-74
2024/01/20 00:28:21;;;;;;;24.65;18.10;;;;;;;;;;5040321;28;20047;-73
2024/01/20 00:30:50;;;;;;;29.77;17.73;;;;;;;;;;5075046;28;20124;-73
2024/01/20 00:33:16;;;;;;;30.50;19.00;;;;;;;;;;5037970;28;20052;-73
2024/01/20 00:35:44;;;;;;;28.48;19.20;;;;;;;;;;5038719;28;20055;-73
2024/01/20 00:38:11;;;;;;;24.95;17.55;;;;;;;;;;5039724;28;20190;-73
2024/01/20 00:40:37;;;;;;;27.75;19.27;;;;;;;;;;5041149;28;20686;-74
2024/01/20 00:43:03;;;;;;;28.75;19.40;;;;;;;;;;5040946;28;20052;-73
2024/01/20 00:45:29;;;;;;;27.35;19.83;;;;;;;;;;5044192;28;20060;-73
2024/01/20 00:47:58;;;;;;;28.40;19.02;;;;;;;;;;5041510;28;20039;-73
2024/01/20 00:50:29;;;;;;;27.95;18.85;;;;;;;;;;5058968;28;20072;-73
2024/01/20 00:52:55;;;;;;;32.25;18.63;;;;;;;;;;5058636;28;20044;-74
2024/01/20 00:55:21;;;;;;;31.38;20.35;;;;;;;;;;5041464;28;20055;-73
2024/01/20 00:57:47;;;;;;;31.90;21.20;;;;;;;;;;5042587;28;20045;-73
2024/01/20 01:00:14;;;;;;;31.75;20.98;;;;;;;;;;5042031;28;20049;-74
2024/01/20 01:02:43;;;;;;;33.35;21.27;;;;;;;;;;5055555;28;20055;-72
2024/01/20 01:05:10;;;;;;;28.05;20.92;;;;;;;;;;5035520;28;20102;-73
2024/01/20 01:07:39;;;;;;;32.03;20.75;;;;;;;;;;5040959;28;20124;-72
2024/01/20 01:10:08;;;;;;;36.42;23.77;;;;;;;;;;5058523;28;20071;-72
2024/01/20 01:12:34;;;;;;;31.13;22.60;;;;;;;;;;5057039;28;20044;-73
2024/01/20 01:15:01;;;;;;;33.55;21.80;;;;;;;;;;5040964;28;20049;-72
2024/01/20 01:17:27;;;;;;;30.77;22.15;;;;;;;;;;5041016;28;20071;-72
2024/01/20 01:19:53;;;;;;;31.48;21.15;;;;;;;;;;5055693;28;20073;-73
2024/01/20 01:22:25;;;;;;;38.72;24.05;;;;;;;;;;5041184;28;20084;-72
2024/01/20 01:24:51;;;;;;;30.52;21.98;;;;;;;;;;5054831;28;20044;-72
2024/01/20 01:27:19;;;;;;;33.95;21.55;;;;;;;;;;5041768;28;20053;-72
2024/01/20 01:29:46;;;;;;;30.67;21.55;;;;;;;;;;5041333;28;20051;-72
2024/01/20 01:32:13;;;;;;;35.08;22.58;;;;;;;;;;5038239;28;20043;-72
2024/01/20 01:34:44;;;;;;;34.85;20.77;;;;;;;;;;5038897;28;21334;-72
2024/01/20 01:37:10;;;;;;;34.20;22.70;;;;;;;;;;5038879;28;20135;-72
2024/01/20 01:39:36;;;;;;;35.08;20.30;;;;;;;;;;5039943;28;20049;-72
2024/01/20 01:42:03;;;;;;;32.00;22.25;;;;;;;;;;5057947;28;20052;-72
2024/01/20 01:44:29;;;;;;;27.70;21.27;;;;;;;;;;5071275;28;20424;-72
2024/01/20 01:46:58;;;;;;;32.15;22.17;;;;;;;;;;5040441;28;20584;-71
2024/01/20 01:49:27;;;;;;;32.45;21.60;;;;;;;;;;5038653;28;20607;-72
2024/01/20 01:51:56;;;;;;;34.70;21.63;;;;;;;;;;5036093;28;20044;-72
2024/01/20 01:54:22;;;;;;;32.60;23.10;;;;;;;;;;5036921;28;20048;-72
2024/01/20 01:56:51;;;;;;;30.42;21.48;;;;;;;;;;5036778;28;20114;-72
2024/01/20 01:59:20;;;;;;;33.80;23.63;;;;;;;;;;5033906;28;20079;-72
2024/01/20 02:01:46;;;;;;;31.00;21.92;;;;;;;;;;5035556;28;20059;-72
2024/01/20 02:04:12;;;;;;;32.50;22.42;;;;;;;;;;5036803;28;20110;-72
2024/01/20 02:06:38;;;;;;;33.83;22.45;;;;;;;;;;5038829;28;20044;-72
2024/01/20 02:09:10;;;;;;;35.63;23.42;;;;;;;;;;5053590;28;20048;-72
2024/01/20 02:11:37;;;;;;;34.92;22.70;;;;;;;;;;5039043;28;21598;-72
2024/01/20 02:14:03;;;;;;;31.25;23.13;;;;;;;;;;5053404;28;20139;-72
2024/01/20 02:16:29;;;;;;;33.20;24.63;;;;;;;;;;5056962;28;20123;-72
2024/01/20 02:19:02;;;;;;;32.88;23.42;;;;;;;;;;5054109;28;20075;-72
2024/01/20 02:21:28;;;;;;;35.80;24.23;;;;;;;;;;5038331;28;20048;-72
2024/01/20 02:23:55;;;;;;;37.13;24.73;;;;;;;;;;5038933;28;20456;-72
2024/01/20 02:26:21;;;;;;;34.30;24.65;;;;;;;;;;5055844;28;20044;-72
2024/01/20 02:28:47;;;;;;;36.35;25.75;;;;;;;;;;5038976;28;20083;-72
2024/01/20 02:31:13;;;;;;;36.45;25.35;;;;;;;;;;5054991;28;21673;-72
2024/01/20 02:33:39;;;;;;;38.90;25.30;;;;;;;;;;5036938;28;20071;-72
2024/01/20 02:36:05;;;;;;;35.70;24.65;;;;;;;;;;5037690;28;20043;-72
2024/01/20 02:38:31;;;;;;;36.72;25.63;;;;;;;;;;5037729;28;20132;-72
2024/01/20 02:40:57;;;;;;;40.13;25.00;;;;;;;;;;5037240;28;20041;-72
2024/01/20 02:43:23;;;;;;;34.05;25.52;;;;;;;;;;5035140;28;21017;-72
2024/01/20 02:45:49;;;;;;;36.28;25.30;;;;;;;;;;5055971;28;20051;-72
2024/01/20 02:48:15;;;;;;;36.38;24.40;;;;;;;;;;5056004;28;20049;-72
2024/01/20 02:50:41;;;;;;;39.90;25.50;;;;;;;;;;5053422;28;20072;-72
2024/01/20 02:53:07;;;;;;;39.10;24.63;;;;;;;;;;5037595;28;20167;-72
2024/01/20 02:55:34;;;;;;;39.58;25.33;;;;;;;;;;5052726;28;20068;-72
2024/01/20 02:58:00;;;;;;;37.67;24.75;;;;;;;;;;5054441;28;20102;-72
2024/01/20 03:00:28;;;;;;;38.20;25.60;;;;;;;;;;5067767;23;20351;-72
2024/01/20 03:02:54;;;;;;;37.17;25.67;;;;;;;;;;5035171;28;20052;-72
2024/01/20 03:05:23;;;;;;;37.72;24.50;;;;;;;;;;5017454;28;20045;-72
2024/01/20 03:07:49;;;;;;;37.15;25.45;;;;;;;;;;5020497;28;20052;-72
2024/01/20 03:10:15;;;;;;;38.30;24.08;;;;;;;;;;5015656;28;20234;-72
2024/01/20 03:12:41;;;;;;;37.17;24.83;;;;;;;;;;5033260;28;20049;-72
2024/01/20 03:15:08;;;;;;;38.03;26.40;;;;;;;;;;5015175;28;20040;-72
2024/01/20 03:17:37;;;;;;;36.90;24.65;;;;;;;;;;5035882;28;20045;-73
2024/01/20 03:20:03;;;;;;;39.70;23.00;;;;;;;;;;5002173;28;20097;-72
2024/01/20 03:22:32;;;;;;;39.28;26.83;;;;;;;;;;5019162;28;20127;-72
2024/01/20 03:24:58;;;;;;;37.28;25.08;;;;;;;;;;5033318;28;20156;-72
2024/01/20 03:27:24;;;;;;;41.88;26.25;;;;;;;;;;5017505;28;20049;-72
2024/01/20 03:29:50;;;;;;;41.17;26.75;;;;;;;;;;5015877;28;20899;-72
2024/01/20 03:32:17;;;;;;;40.38;26.05;;;;;;;;;;5015623;28;20076;-72
2024/01/20 03:34:46;;;;;;;43.30;25.23;;;;;;;;;;4998416;28;20055;-72
2024/01/20 03:37:12;;;;;;;40.17;27.67;;;;;;;;;;5034247;28;20055;-72
2024/01/20 03:39:41;;;;;;;41.40;25.15;;;;;;;;;;5034506;28;20049;-72
2024/01/20 03:42:07;;;;;;;41.00;26.40;;;;;;;;;;5035519;28;20398;-72
2024/01/20 03:44:33;;;;;;;37.78;26.48;;;;;;;;;;5035557;28;20181;-72
2024/01/20 03:46:59;;;;;;;37.53;25.77;;;;;;;;;;5000007;28;20052;-72
2024/01/20 03:49:25;;;;;;;41.50;27.02;;;;;;;;;;5017941;28;20048;-72
2024/01/20 03:51:54;;;;;;;43.42;28.38;;;;;;;;;;5015068;28;20141;-71
2024/01/20 03:54:20;;;;;;;44.92;28.38;;;;;;;;;;5035558;28;20602;-72
2024/01/20 03:56:46;;;;;;;46.55;27.42;;;;;;;;;;5022178;28;20049;-72
2024/01/20 03:59:12;;;;;;;45.65;27.73;;;;;;;;;;5035633;28;20044;-72
2024/01/20 04:01:39;;;;;;;44.67;28.27;;;;;;;;;;5033698;28;20045;-72
2024/01/20 04:04:05;;;;;;;40.80;25.65;;;;;;;;;;5022886;28;20406;-71
2024/01/20 04:06:32;;;;;;;39.67;24.50;;;;;;;;;;5019170;28;20634;-72
2024/01/20 04:09:00;;;;;;;44.90;26.85;;;;;;;;;;5005676;28;20065;-72
2024/01/20 04:11:26;;;;;;;44.70;25.65;;;;;;;;;;5023321;28;20057;-72
2024/01/20 04:13:55;;;;;;;45.22;27.60;;;;;;;;;;5021254;28;20179;-73
2024/01/20 04:16:21;;;;;;;42.08;25.55;;;;;;;;;;5017975;28;20410;-72
2024/01/20 04:18:47;;;;;;;44.28;26.85;;;;;;;;;;5016876;28;20045;-72
2024/01/20 04:21:13;;;;;;;44.30;25.98;;;;;;;;;;5005724;28;20054;-72
2024/01/20 04:23:42;;;;;;;45.92;26.33;;;;;;;;;;5034412;28;20049;-72
2024/01/20 04:26:08;;;;;;;44.33;27.27;;;;;;;;;;5017060;28;20040;-73
2024/01/20 04:28:35;;;;;;;41.08;27.17;;;;;;;;;;5017752;28;20048;-72
2024/01/20 04:31:01;;;;;;;42.33;26.95;;;;;;;;;;5019481;28;20068;-74
2024/01/20 04:33:30;;;;;;;48.60;26.23;;;;;;;;;;4998285;28;20033;-73
2024/01/20 04:35:56;;;;;;;44.80;27.17;;;;;;;;;;5031585;28;20045;-74
2024/01/20 04:38:22;;;;;;;46.13;28.15;;;;;;;;;;5036889;28;20164;-74
2024/01/20 04:40:51;;;;;;;43.90;25.58;;;;;;;;;;5015354;28;20051;-74
2024/01/20 04:43:23;;;;;;;50.17;29.00;;;;;;;;;;5020914;28;20049;-74
2024/01/20 04:45:55;;;;;;;54.50;28.67;;;;;;;;;;5037253;28;20041;-74
2024/01/20 04:48:21;;;;;;;56.05;29.67;;;;;;;;;;5038221;28;20052;-75
2024/01/20 04:50:47;;;;;;;49.97;27.48;;;;;;;;;;5037410;28;20084;-75
2024/01/20 04:53:13;;;;;;;51.50;28.67;;;;;;;;;;5037605;28;20418;-75
2024/01/20 04:55:42;;;;;;;54.58;28.90;;;;;;;;;;5022123;28;20064;-75
2024/01/20 04:58:08;;;;;;;54.20;29.45;;;;;;;;;;5038429;28;20037;-75
2024/01/20 05:00:40;;;;;;;55.33;29.65;;;;;;;;;;5021397;28;20045;-75
2024/01/20 05:03:12;;;;;;;56.72;31.45;;;;;;;;;;5019045;28;20045;-74
2024/01/20 05:05:39;;;;;;;61.83;32.35;;;;;;;;;;5021829;28;20056;-75
2024/01/20 05:08:05;;;;;;;57.35;31.35;;;;;;;;;;5020882;28;20126;-74
2024/01/20 05:10:33;;;;;;;58.10;29.80;;;;;;;;;;5021661;28;20052;-75
2024/01/20 05:12:59;;;;;;;57.08;31.33;;;;;;;;;;5039790;28;20041;-74
2024/01/20 05:15:25;;;;;;;52.38;29.20;;;;;;;;;;5017483;28;20045;-75
2024/01/20 05:17:51;;;;;;;52.95;29.50;;;;;;;;;;5038640;28;20178;-75
2024/01/20 05:20:20;;;;;;;50.78;27.63;;;;;;;;;;5019955;28;20770;-74
2024/01/20 05:22:52;;;;;;;59.42;30.88;;;;;;;;;;5020076;28;20049;-75
2024/01/20 05:25:18;;;;;;;56.25;31.17;;;;;;;;;;5037989;28;20140;-74
2024/01/20 05:27:44;;;;;;;57.60;29.45;;;;;;;;;;5036423;28;20043;-74
2024/01/20 05:30:11;;;;;;;55.90;29.77;;;;;;;;;;5003684;28;20048;-74
2024/01/20 05:32:40;;;;;;;54.05;28.50;;;;;;;;;;5017937;28;20046;-74
2024/01/20 05:35:06;;;;;;;62.33;31.55;;;;;;;;;;5037612;28;20052;-74
2024/01/20 05:37:36;;;;;;;59.25;30.52;;;;;;;;;;5034236;28;20047;-73
2024/01/20 05:40:05;;;;;;;58.38;30.77;;;;;;;;;;5032482;28;20053;-73
2024/01/20 05:42:31;;;;;;;51.53;28.38;;;;;;;;;;5021351;28;20554;-74
2024/01/20 05:44:57;;;;;;;57.95;30.90;;;;;;;;;;5034725;28;20041;-74
2024/01/20 05:47:23;;;;;;;55.33;27.40;;;;;;;;;;5019667;28;20432;-73
2024/01/20 05:49:49;;;;;;;58.83;30.77;;;;;;;;;;5020440;28;20041;-73
2024/01/20 05:52:18;;;;;;;58.55;30.42;;;;;;;;;;5018377;28;20077;-74
2024/01/20 05:54:47;;;;;;;53.15;28.05;;;;;;;;;;5018655;28;20056;-72
2024/01/20 05:57:15;;;;;;;59.30;31.52;;;;;;;;;;5018143;28;20522;-74
2024/01/20 05:59:42;;;;;;;61.05;31.42;;;;;;;;;;5026927;28;20041;-73
2024/01/20 06:02:08;;;;;;;57.50;30.45;;;;;;;;;;5034539;28;20049;-73
2024/01/20 06:04:34;;;;;;;56.40;30.02;;;;;;;;;;5015825;28;20075;-74
2024/01/20 06:07:03;;;;;;;52.70;28.92;;;;;;;;;;5006107;28;20041;-71
2024/01/20 06:09:29;;;;;;;53.63;27.83;;;;;;;;;;5001881;28;20099;-71
2024/01/20 06:11:55;;;;;;;52.75;26.67;;;;;;;;;;5017297;28;20037;-70
2024/01/20 06:14:21;;;;;;;51.55;30.38;;;;;;;;;;5009156;28;20048;-71
2024/01/20 06:16:47;;;;;;;50.50;28.20;;;;;;;;;;5036121;28;20080;-71
2024/01/20 06:19:16;;;;;;;54.22;30.33;;;;;;;;;;5002502;28;20492;-71
2024/01/20 06:21:42;;;;;;;50.40;27.95;;;;;;;;;;5033640;28;20045;-70
2024/01/20 06:24:09;;;;;;;57.72;29.30;;;;;;;;;;5016594;28;20048;-70
2024/01/20 06:26:35;;;;;;;56.40;29.20;;;;;;;;;;5017316;28;20053;-70
2024/01/20 06:29:02;;;;;;;59.58;30.13;;;;;;;;;;5033292;28;20048;-70
2024/01/20 06:31:28;;;;;;;53.92;28.25;;;;;;;;;;5001291;28;20041;-71
2024/01/20 06:33:54;;;;;;;56.38;29.02;;;;;;;;;;5004022;28;20072;-70
2024/01/20 06:36:21;;;;;;;56.45;29.45;;;;;;;;;;5018050;28;20045;-69
2024/01/20 06:38:53;;;;;;;53.53;28.50;;;;;;;;;;5036526;28;20048;-70
2024/01/20 06:41:19;;;;;;;58.78;28.80;;;;;;;;;;5017912;28;20066;-69
2024/01/20 06:43:45;;;;;;;55.33;29.60;;;;;;;;;;5033685;28;20494;-69
2024/01/20 06:46:11;;;;;;;58.15;29.77;;;;;;;;;;5017423;28;20059;-69
2024/01/20 06:48:37;;;;;;;54.83;26.35;;;;;;;;;;5034036;28;20060;-70
2024/01/20 06:51:04;;;;;;;53.33;28.45;;;;;;;;;;5013074;28;20080;-70
2024/01/20 06:53:31;;;;;;;56.15;29.58;;;;;;;;;;5031248;28;20870;-69
2024/01/20 06:55:57;;;;;;;52.70;27.27;;;;;;;;;;5019643;28;20053;-69
2024/01/20 06:58:24;;;;;;;61.50;32.00;;;;;;;;;;5018565;28;20045;-69
2024/01/20 07:00:50;;;;;;;54.75;28.27;;;;;;;;;;5017130;28;20478;-69
2024/01/20 07:03:19;;;;;;;55.67;27.35;;;;;;;;;;5031969;28;20509;-69
2024/01/20 07:05:45;;;;;;;54.67;28.42;;;;;;;;;;5030870;28;20046;-69
2024/01/20 07:08:11;;;;;;;55.28;26.90;;;;;;;;;;5011918;28;20127;-69
2024/01/20 07:10:37;;;;;;;46.78;23.92;;;;;;;;;;5033009;28;20417;-69
2024/01/20 07:13:03;;;;;;;56.38;27.88;;;;;;;;;;5012853;28;20412;-69
2024/01/20 07:15:29;;;;;;;52.42;27.73;;;;;;;;;;5016252;28;20048;-70
2024/01/20 07:17:56;;;;;;;57.13;29.52;;;;;;;;;;5033419;28;20115;-71
2024/01/20 07:20:22;;;;;;;55.25;28.77;;;;;;;;;;5007424;28;20041;-70
2024/01/20 07:22:49;;;;;;;53.47;28.40;;;;;;;;;;5020801;28;20182;-70
2024/01/20 07:25:16;;;;;;;59.28;30.20;;;;;;;;;;5014443;28;20529;-70
2024/01/20 07:27:42;;;;;;;59.00;28.50;;;;;;;;;;5011807;28;20056;-70
2024/01/20 07:30:09;;;;;;;57.45;29.75;;;;;;;;;;5029829;28;20868;-69
2024/01/20 07:32:35;;;;;;;54.45;30.83;;;;;;;;;;5033301;28;20040;-68
2024/01/20 07:35:02;;;;;;;56.35;30.38;;;;;;;;;;5019206;28;20056;-69
2024/01/20 07:37:29;;;;;;;52.28;26.10;;;;;;;;;;5016858;28;20045;-70
2024/01/20 07:39:55;;;;;;;54.55;29.63;;;;;;;;;;5016368;28;20049;-70
2024/01/20 07:42:21;;;;;;;55.22;29.08;;;;;;;;;;5016487;28;20045;-70
2024/01/20 07:44:47;;;;;;;58.10;28.42;;;;;;;;;;5034460;28;20072;-68
2024/01/20 07:47:15;;;;;;;56.67;29.75;;;;;;;;;;5017335;28;20901;-69
2024/01/20 07:49:41;;;;;;;58.40;30.05;;;;;;;;;;5031505;28;21006;-68
2024/01/20 07:52:08;;;;;;;61.13;28.23;;;;;;;;;;5015351;28;20043;-68
2024/01/20 07:54:34;;;;;;;57.83;30.02;;;;;;;;;;5030061;28;20052;-68
2024/01/20 07:57:02;;;;;;;56.17;28.98;;;;;;;;;;5009107;28;20049;-69
2024/01/20 07:59:29;;;;;;;57.70;31.15;;;;;;;;;;5035444;28;20142;-68
2024/01/20 08:01:58;;;;;;;58.65;28.45;;;;;;;;;;5020158;28;20049;-69
2024/01/20 08:04:24;;;;;;;58.70;29.92;;;;;;;;;;5017354;28;20127;-69
2024/01/20 08:06:50;;;;;;;58.17;29.42;;;;;;;;;;5013982;28;21273;-68
2024/01/20 08:09:16;;;;;;;60.40;29.05;;;;;;;;;;5031224;28;20417;-68
2024/01/20 08:11:42;;;;;;;61.15;30.23;;;;;;;;;;5032531;28;20044;-68
2024/01/20 08:14:08;;;;;;;52.42;28.23;;;;;;;;;;5034886;28;20059;-68
2024/01/20 08:16:35;;;;;;;59.65;30.35;;;;;;;;;;5016207;28;20040;-67
2024/01/20 08:19:04;;;;;;;55.63;29.80;;;;;;;;;;5021492;28;20041;-68
2024/01/20 08:21:30;;;;;;;58.10;29.27;;;;;;;;;;5019075;28;20045;-68
2024/01/20 08:23:56;;;;;;;54.63;27.98;;;;;;;;;;5038643;28;20140;-67
2024/01/20 08:26:22;;;;;;;52.50;27.95;;;;;;;;;;5021828;28;20090;-68
2024/01/20 08:28:49;;;;;;;50.15;28.08;;;;;;;;;;5035303;28;20434;-68
2024/01/20 08:31:15;;;;;;;55.60;27.63;;;;;;;;;;5000943;28;20044;-67
2024/01/20 08:33:42;;;;;;;56.40;30.52;;;;;;;;;;5020398;28;20056;-67
2024/01/20 08:36:08;;;;;;;56.38;29.17;;;;;;;;;;5021310;28;20086;-68
2024/01/20 08:38:34;;;;;;;50.42;27.52;;;;;;;;;;5038491;28;20084;-68
2024/01/20 08:41:10;;;;;;;56.70;29.05;;;;;;;;;;5038861;28;20469;-68
2024/01/20 08:43:39;;;;;;;51.88;28.35;;;;;;;;;;5026275;28;20051;-68
2024/01/20 08:46:05;;;;;;;52.50;28.38;;;;;;;;;;5021305;28;20049;-68
2024/01/20 08:48:41;;;;;;;50.55;27.98;;;;;;;;;;5019983;28;20055;-68
2024/01/20 08:51:07;;;;;;;53.60;29.73;;;;;;;;;;5035035;28;20057;-68
2024/01/20 08:53:33;;;;;;;52.22;27.83;;;;;;;;;;5037973;28;20048;-68
2024/01/20 08:56:00;;;;;;;49.47;26.45;;;;;;;;;;5021837;28;20052;-68
2024/01/20 08:58:26;;;;;;;53.67;28.40;;;;;;;;;;5036827;28;20049;-68
2024/01/20 09:00:52;;;;;;;50.45;27.75;;;;;;;;;;5026417;28;20052;-67
2024/01/20 09:03:19;;;;;;;55.47;29.17;;;;;;;;;;5036670;28;20062;-68
2024/01/20 09:05:53;;;;;;;49.85;26.73;;;;;;;;;;5023537;28;20040;-68
2024/01/20 09:08:19;;;;;;;48.13;24.60;;;;;;;;;;5023393;28;20131;-68
2024/01/20 09:10:45;;;;;;;53.55;27.13;;;;;;;;;;5038491;28;20436;-68
2024/01/20 09:13:11;;;;;;;54.42;29.58;;;;;;;;;;5018996;28;20041;-69
2024/01/20 09:15:38;;;;;;;51.67;27.90;;;;;;;;;;5026551;28;20045;-69
2024/01/20 09:18:07;;;;;;;46.92;26.05;;;;;;;;;;5016325;28;20442;-68
2024/01/20 09:20:33;;;;;;;48.78;26.45;;;;;;;;;;5005640;28;20055;-68
2024/01/20 09:23:00;;;;;;;48.88;28.52;;;;;;;;;;5031742;28;20079;-69
2024/01/20 09:25:27;;;;;;;51.78;28.40;;;;;;;;;;5011953;28;20703;-69
2024/01/20 09:27:54;;;;;;;51.55;28.75;;;;;;;;;;5030286;28;20088;-69
2024/01/20 09:30:26;;;;;;;49.42;26.23;;;;;;;;;;5042253;28;20037;-69
2024/01/20 09:32:55;;;;;;;44.20;25.73;;;;;;;;;;5007176;28;20049;-69
2024/01/20 09:35:21;;;;;;;49.25;26.00;;;;;;;;;;5023864;28;20048;-69
2024/01/20 09:37:51;;;;;;;46.13;24.40;;;;;;;;;;5039113;28;20802;-70
2024/01/20 09:40:17;;;;;;;49.08;26.65;;;;;;;;;;5025846;28;20477;-70
2024/01/20 09:42:43;;;;;;;44.78;24.52;;;;;;;;;;5041218;28;20555;-70
2024/01/20 09:45:22;;;;;;;45.55;24.80;;;;;;;;;;5006020;28;20047;-71
2024/01/20 09:47:48;;;;;;;49.63;26.55;;;;;;;;;;5028898;28;20041;-73
2024/01/20 09:50:15;;;;;;;44.60;25.08;;;;;;;;;;5011300;28;20408;-70
2024/01/20 09:53:01;;;;;;;41.35;25.20;;;;;;;;;;5027200;28;20041;-70
2024/01/20 09:55:30;;;;;;;44.72;25.25;;;;;;;;;;5040572;28;20076;-71
2024/01/20 09:58:06;;;;;;;43.15;23.48;;;;;;;;;;5022455;28;20521;-71
2024/01/20 10:00:33;;;;;;;45.67;24.48;;;;;;;;;;5035993;28;20036;-70
2024/01/20 10:03:01;;;;;;;43.17;24.70;;;;;;;;;;5012939;28;20413;-71
2024/01/20 10:05:29;;;;;;;38.80;24.50;;;;;;;;;;5031939;28;20062;-72
2024/01/20 10:07:58;;;;;;;45.10;24.95;;;;;;;;;;5034435;28;20041;-72
2024/01/20 10:10:53;;;;;;;43.30;23.35;;;;;;;;;;5034007;28;20681;-72
2024/01/20 10:13:19;;;;;;;41.33;24.73;;;;;;;;;;5016498;28;20052;-72
2024/01/20 10:15:45;;;;;;;41.45;23.83;;;;;;;;;;5017385;28;20055;-72
2024/01/20 10:18:26;;;;;;;43.10;22.63;;;;;;;;;;5032029;28;20120;-72
2024/01/20 10:21:05;;;;;;;40.95;22.48;;;;;;;;;;5034380;28;20050;-72
2024/01/20 10:23:49;;;;;;;43.13;23.67;;;;;;;;;;5032153;28;20080;-72
2024/01/20 10:26:16;;;;;;;43.75;24.15;;;;;;;;;;5031742;28;20152;-73
2024/01/20 10:28:43;;;;;;;42.65;23.70;;;;;;;;;;5017198;28;20084;-73
2024/01/20 10:31:10;;;;;;;38.50;21.95;;;;;;;;;;5000065;28;20073;-72
2024/01/20 10:33:36;;;;;;;37.40;21.85;;;;;;;;;;5032493;28;20048;-73
2024/01/20 10:36:06;;;;;;;40.50;22.67;;;;;;;;;;5017751;28;20723;-72
2024/01/20 10:38:56;;;;;;;37.92;20.92;;;;;;;;;;5031726;28;20110;-72
2024/01/20 10:41:23;;;;;;;39.72;22.42;;;;;;;;;;5012334;28;20079;-72
2024/01/20 10:43:59;;;;;;;36.35;19.70;;;;;;;;;;5012835;28;20033;-73
2024/01/20 10:46:31;;;;;;;;;;;;;;;;;;5000953;28;20176;-73
2024/01/20 10:49:00;;;;;;;40.75;22.40;;;;;;;;;;5008961;28;19925;-73
2024/01/20 10:51:27;;;;;;;39.63;22.10;;;;;;;;;;5017144;28;20492;-73
2024/01/20 10:54:02;;;;;;;38.53;20.92;;;;;;;;;;5015422;28;20052;-73
2024/01/20 10:56:29;;;;;;;39.97;22.88;;;;;;;;;;5030354;28;20138;-73
2024/01/20 10:59:15;;;;;;;35.92;21.38;;;;;;;;;;5014065;28;20436;-73
2024/01/20 11:01:49;;;;;;;37.58;21.73;;;;;;;;;;5013714;28;20049;-73
2024/01/20 11:04:35;;;;;;;39.25;21.58;;;;;;;;;;5031077;28;20091;-72
2024/01/20 11:07:01;;;;;;;36.50;20.60;;;;;;;;;;4999876;28;20072;-72
2024/01/20 11:09:30;;;;;;;38.17;21.65;;;;;;;;;;5030861;28;20041;-72
2024/01/20 11:12:04;;;;;;;37.83;22.10;;;;;;;;;;5031725;28;20536;-72
2024/01/20 11:14:49;;;;;;;37.53;22.70;;;;;;;;;;4996536;28;20052;-72
2024/01/20 11:17:18;;;;;;;35.97;22.67;;;;;;;;;;5002319;28;20049;-72
2024/01/20 11:19:44;;;;;;;36.80;22.20;;;;;;;;;;5030819;28;20048;-72
2024/01/20 11:22:32;;;;;;;37.38;22.50;;;;;;;;;;5032064;28;20131;-72
2024/01/20 11:25:03;;;;;;;38.13;22.42;;;;;;;;;;5030224;28;20092;-71
2024/01/20 11:27:32;;;;;;;40.53;22.15;;;;;;;;;;5012683;28;20053;-72
2024/01/20 11:30:05;;;;;;;36.60;21.80;;;;;;;;;;5014559;28;20573;-71
2024/01/20 11:32:32;;;;;;;36.05;20.77;;;;;;;;;;5030631;28;20051;-73
2024/01/20 11:34:58;;;;;;;37.03;21.85;;;;;;;;;;5027718;28;20049;-73
2024/01/20 11:37:25;;;;;;;38.92;21.85;;;;;;;;;;5017472;28;20100;-72
2024/01/20 11:40:07;;;;;;;37.55;22.10;;;;;;;;;;5016156;28;20041;-72
2024/01/20 11:42:38;;;;;;;40.72;22.80;;;;;;;;;;5014818;28;20044;-73
2024/01/20 11:45:04;;;;;;;38.72;21.02;;;;;;;;;;5028237;28;20051;-72
2024/01/20 11:47:31;;;;;;;35.25;22.35;;;;;;;;;;5011336;28;20040;-73
2024/01/20 11:49:57;;;;;;;36.22;22.27;;;;;;;;;;5012843;28;20052;-72
2024/01/20 11:52:24;;;;;;;41.22;22.55;;;;;;;;;;4999437;28;20405;-72
2024/01/20 11:54:50;;;;;;;40.75;21.92;;;;;;;;;;5020026;28;20055;-72
2024/01/20 11:57:20;;;;;;;39.55;22.58;;;;;;;;;;5019659;28;20049;-72
2024/01/20 11:59:47;;;;;;;38.13;22.08;;;;;;;;;;5004647;28;20048;-72
2024/01/20 12:02:13;;;;;;;36.88;21.70;;;;;;;;;;5015653;28;20045;-73
2024/01/20 12:04:39;;;;;;;35.53;20.88;;;;;;;;;;5017421;28;20568;-73
2024/01/20 12:07:06;;;;;;;38.55;22.58;;;;;;;;;;5034694;28;20040;-73
2024/01/20 12:09:35;;;;;;;39.00;22.02;;;;;;;;;;5018264;28;20159;-73
2024/01/20 12:12:05;;;;;;;39.03;21.98;;;;;;;;;;5005225;28;20068;-73
2024/01/20 12:14:31;;;;;;;35.45;19.80;;;;;;;;;;5032919;28;20048;-73
2024/01/20 12:16:57;;;;;;;33.97;20.50;;;;;;;;;;5032668;28;20116;-72
2024/01/20 12:19:31;;;;;;;37.75;21.20;;;;;;;;;;5026144;28;22389;-73
2024/01/20 12:22:00;;;;;;;34.47;20.58;;;;;;;;;;5003165;28;20970;-73
2024/01/20 12:24:26;;;;;;;35.42;20.45;;;;;;;;;;5015831;28;20049;-73
2024/01/20 12:27:06;;;;;;;34.03;21.10;;;;;;;;;;5018645;28;20090;-72
2024/01/20 12:29:33;;;;;;;35.35;20.63;;;;;;;;;;5015411;28;20131;-72
2024/01/20 12:31:59;;;;;;;35.95;22.10;;;;;;;;;;5016071;28;20038;-72
2024/01/20 12:34:28;;;;;;;33.90;20.55;;;;;;;;;;5017447;28;20156;-72
2024/01/20 12:36:58;;;;;;;33.70;20.30;;;;;;;;;;5014324;28;20787;-73
2024/01/20 13:20:25;;;;;;;33.50;18.80;;;3.40;99.90;;;;;;6132663;22;1246882;-72
2024/01/20 13:23:11;;;;;;;30.92;18.88;;;3.50;99.90;;;;;;6149969;23;20041;-72
2024/01/20 13:25:40;;;;;;;31.85;19.10;;;3.50;99.90;;;;;;6157152;23;20028;-72
2024/01/20 13:28:06;;;;;;;31.80;19.17;;;3.60;99.90;;;;;;6156252;23;20072;-72
2024/01/20 13:30:32;;;;;;;27.40;18.25;;;3.80;99.90;;;;;;6141891;23;20022;-72
2024/01/20 13:32:58;;;;;;;29.75;18.55;;;3.90;99.90;;;;;;6129443;23;20025;-72
2024/01/20 13:35:23;;;;;;;31.10;18.95;;;4.10;99.90;;;;;;6122604;23;20026;-72
2024/01/20 13:37:49;;;;;;;26.77;17.17;;;4.20;99.90;;;;;;6119264;23;20030;-71
2024/01/20 13:40:14;;;;;;;28.48;18.95;;;4.40;99.90;;;;;;6124692;23;20028;-71
2024/01/20 13:42:40;;;;;;;24.88;15.82;;;4.50;99.90;;;;;;6120821;23;20443;-72
2024/01/20 13:45:07;;;;;;;24.10;15.93;;;4.60;99.90;;;;;;6118865;23;20076;-72
2024/01/20 13:47:34;;;;;;;25.98;16.80;;;4.70;99.90;;;;;;6121534;23;20425;-72
2024/01/20 13:50:03;;;;;;;26.73;17.42;;;4.80;99.90;;;;;;6123069;23;20033;-72
2024/01/20 13:52:29;;;;;;;24.80;16.60;;;4.90;99.90;;;;;;6121522;23;20450;-71
2024/01/20 13:54:54;;;;;;;27.08;15.85;;;5.10;99.90;;;;;;6124134;23;20071;-73
2024/01/20 13:57:20;;;;;;;26.15;17.38;;;5.20;99.90;;;;;;6101350;23;20017;-71
2024/01/20 13:59:45;;;;;;;24.63;16.55;;;5.10;99.90;;;;;;6134388;23;20026;-73
2024/01/20 14:02:11;;;;;;;24.42;16.08;;;4.90;99.90;;;;;;6135072;23;20024;-74
2024/01/20 14:04:37;;;;;;;25.08;16.80;;;4.80;99.90;;;;;;6135050;23;20022;-74
2024/01/20 14:07:03;;;;;;;24.58;16.58;;;4.50;99.90;;;;;;6135700;23;20097;-74
2024/01/20 14:09:30;;;;;;;29.70;16.95;;;4.40;99.90;;;;;;6123715;23;20327;-74
2024/01/20 14:11:56;;;;;;;25.23;16.50;;;4.20;99.90;;;;;;6124574;23;20094;-74
2024/01/20 14:14:21;;;;;;;22.83;14.65;;;4.10;99.90;;;;;;6123442;23;20738;-74
2024/01/20 14:16:57;;;;;;;23.80;15.50;;;4.00;99.90;;;;;;6115926;23;20022;-74
2024/01/20 14:19:24;;;;;;;25.20;15.40;;;3.90;99.90;;;;;;6115442;23;20028;-74
2024/01/20 14:21:50;;;;;;;22.88;15.57;;;3.80;99.90;;;;;;6115938;23;20025;-74
2024/01/20 14:24:16;;;;;;;21.58;14.60;;;3.60;99.90;;;;;;6115664;23;20018;-74
2024/01/20 14:26:42;;;;;;;24.40;15.30;;;3.50;99.90;;;;;;6116407;23;20010;-74
2024/01/20 14:29:08;;;;;;;21.67;15.43;;;3.50;99.90;;;;;;6117655;23;20017;-74
2024/01/20 14:31:46;;;;;;;21.80;15.27;;;3.40;99.90;;;;;;6115233;23;20056;-72
2024/01/20 14:34:12;;;;;;;22.92;15.52;;;3.40;99.90;;;;;;6114667;23;20026;-72
2024/01/20 14:36:38;;;;;;;24.35;15.23;;;3.30;99.90;;;;;;6114901;23;20029;-72
2024/01/20 14:39:03;;;;;;;25.55;15.23;;;3.30;99.90;;;;;;6116102;23;20509;-72
2024/01/20 14:41:30;;;;;;;24.45;17.13;;;3.30;99.90;;;;;;6115654;23;20052;-72
2024/01/20 14:43:56;;;;;;;25.17;16.52;;;3.30;99.90;;;;;;6113982;23;20039;-72
2024/01/20 14:46:21;;;;;;;26.05;17.15;;;3.30;99.90;;;;;;6115170;23;20362;-72
2024/01/20 14:48:47;;;;;;;26.70;16.58;;;3.20;99.90;;;;;;6116010;23;20089;-72